sensor_id;sensor_type;location;lat;lon;timestamp;pressure;altitude;pressure_sealevel;temperature
18782;BMP180;9519;51.890;8.970;2023-05-16T00:00:40;99125.00;;;9.50
18782;BMP180;9519;51.890;8.970;2023-05-16T00:05:42;99125.00;;;9.50
18782;BMP180;9519;51.890;8.970;2023-05-16T00:10:44;99120.00;;;9.50
18782;BMP180;9519;51.890;8.970;2023-05-16T00:15:47;99121.00;;;9.50
18782;BMP180;9519;51.890;8.970;2023-05-16T00:20:49;99127.00;;;9.40
18782;BMP180;9519;51.890;8.970;2023-05-16T00:25:52;99125.00;;;9.40
18782;BMP180;9519;51.890;8.970;2023-05-16T00:30:55;99116.00;;;9.40
18782;BMP180;9519;51.890;8.970;2023-05-16T00:35:57;99129.00;;;9.30
18782;BMP180;9519;51.890;8.970;2023-05-16T00:40:59;99120.00;;;9.20
18782;BMP180;9519;51.890;8.970;2023-05-16T00:46:02;99121.00;;;9.20
18782;BMP180;9519;51.890;8.970;2023-05-16T00:51:04;99115.00;;;9.20
18782;BMP180;9519;51.890;8.970;2023-05-16T00:56:09;99126.00;;;9.20
18782;BMP180;9519;51.890;8.970;2023-05-16T01:01:12;99118.00;;;9.10
18782;BMP180;9519;51.890;8.970;2023-05-16T01:06:14;99115.00;;;9.10
18782;BMP180;9519;51.890;8.970;2023-05-16T01:11:25;99121.00;;;9.10
18782;BMP180;9519;51.890;8.970;2023-05-16T01:16:39;99124.00;;;9.10
18782;BMP180;9519;51.890;8.970;2023-05-16T01:21:51;99127.00;;;9.10
18782;BMP180;9519;51.890;8.970;2023-05-16T01:26:59;99128.00;;;9.20
18782;BMP180;9519;51.890;8.970;2023-05-16T01:32:01;99111.00;;;9.20
18782;BMP180;9519;51.890;8.970;2023-05-16T01:37:15;99114.00;;;9.20
18782;BMP180;9519;51.890;8.970;2023-05-16T01:42:23;99124.00;;;9.10
18782;BMP180;9519;51.890;8.970;2023-05-16T01:47:30;99135.00;;;9.10
18782;BMP180;9519;51.890;8.970;2023-05-16T01:52:39;99141.00;;;9.10
18782;BMP180;9519;51.890;8.970;2023-05-16T01:57:45;99134.00;;;9.10
18782;BMP180;9519;51.890;8.970;2023-05-16T02:02:48;99136.00;;;9.10
18782;BMP180;9519;51.890;8.970;2023-05-16T02:07:50;99139.00;;;9.10
18782;BMP180;9519;51.890;8.970;2023-05-16T02:12:53;99145.00;;;9.10
18782;BMP180;9519;51.890;8.970;2023-05-16T02:17:55;99141.00;;;9.10
18782;BMP180;9519;51.890;8.970;2023-05-16T02:22:58;99144.00;;;9.10
18782;BMP180;9519;51.890;8.970;2023-05-16T02:28:01;99140.00;;;9.10
18782;BMP180;9519;51.890;8.970;2023-05-16T02:33:04;99139.00;;;9.10
18782;BMP180;9519;51.890;8.970;2023-05-16T02:38:06;99145.00;;;9.10
18782;BMP180;9519;51.890;8.970;2023-05-16T02:43:10;99158.00;;;9.00
18782;BMP180;9519;51.890;8.970;2023-05-16T02:48:12;99157.00;;;9.00
18782;BMP180;9519;51.890;8.970;2023-05-16T02:53:14;99168.00;;;9.00
18782;BMP180;9519;51.890;8.970;2023-05-16T02:58:17;99168.00;;;8.90
18782;BMP180;9519;51.890;8.970;2023-05-16T03:03:19;99148.00;;;8.70
18782;BMP180;9519;51.890;8.970;2023-05-16T03:08:22;99163.00;;;8.70
18782;BMP180;9519;51.890;8.970;2023-05-16T03:13:25;99148.00;;;8.70
18782;BMP180;9519;51.890;8.970;2023-05-16T03:18:28;99165.00;;;8.60
18782;BMP180;9519;51.890;8.970;2023-05-16T03:23:30;99168.00;;;8.50
18782;BMP180;9519;51.890;8.970;2023-05-16T03:28:34;99182.00;;;8.50
18782;BMP180;9519;51.890;8.970;2023-05-16T03:33:36;99192.00;;;8.50
18782;BMP180;9519;51.890;8.970;2023-05-16T03:38:38;99205.00;;;8.40
18782;BMP180;9519;51.890;8.970;2023-05-16T03:43:41;99181.00;;;8.40
18782;BMP180;9519;51.890;8.970;2023-05-16T03:48:43;99192.00;;;8.40
18782;BMP180;9519;51.890;8.970;2023-05-16T03:53:46;99193.00;;;8.30
18782;BMP180;9519;51.890;8.970;2023-05-16T03:58:49;99191.00;;;8.20
18782;BMP180;9519;51.890;8.970;2023-05-16T04:03:51;99193.00;;;8.10
18782;BMP180;9519;51.890;8.970;2023-05-16T04:08:53;99195.00;;;8.10
18782;BMP180;9519;51.890;8.970;2023-05-16T04:13:56;99182.00;;;8.10
18782;BMP180;9519;51.890;8.970;2023-05-16T04:18:59;99201.00;;;8.00
18782;BMP180;9519;51.890;8.970;2023-05-16T04:24:01;99224.00;;;8.10
18782;BMP180;9519;51.890;8.970;2023-05-16T04:29:04;99206.00;;;8.00
18782;BMP180;9519;51.890;8.970;2023-05-16T04:34:06;99213.00;;;8.00
18782;BMP180;9519;51.890;8.970;2023-05-16T04:39:08;99222.00;;;8.00
18782;BMP180;9519;51.890;8.970;2023-05-16T04:44:13;99221.00;;;8.00
18782;BMP180;9519;51.890;8.970;2023-05-16T04:49:15;99229.00;;;7.90
18782;BMP180;9519;51.890;8.970;2023-05-16T04:54:17;99244.00;;;7.90
18782;BMP180;9519;51.890;8.970;2023-05-16T04:59:20;99249.00;;;7.90
18782;BMP180;9519;51.890;8.970;2023-05-16T05:04:23;99256.00;;;7.80
18782;BMP180;9519;51.890;8.970;2023-05-16T05:09:25;99250.00;;;7.70
18782;BMP180;9519;51.890;8.970;2023-05-16T05:14:29;99225.00;;;7.70
18782;BMP180;9519;51.890;8.970;2023-05-16T05:19:31;99237.00;;;7.70
18782;BMP180;9519;51.890;8.970;2023-05-16T05:24:33;99239.00;;;7.60
18782;BMP180;9519;51.890;8.970;2023-05-16T05:29:36;99240.00;;;7.60
18782;BMP180;9519;51.890;8.970;2023-05-16T05:34:38;99224.00;;;7.60
18782;BMP180;9519;51.890;8.970;2023-05-16T05:39:41;99277.00;;;7.60
18782;BMP180;9519;51.890;8.970;2023-05-16T05:44:44;99263.00;;;7.60
18782;BMP180;9519;51.890;8.970;2023-05-16T05:49:46;99272.00;;;7.60
18782;BMP180;9519;51.890;8.970;2023-05-16T05:54:48;99278.00;;;7.50
18782;BMP180;9519;51.890;8.970;2023-05-16T05:59:52;99289.00;;;7.50
18782;BMP180;9519;51.890;8.970;2023-05-16T06:04:54;99294.00;;;7.50
18782;BMP180;9519;51.890;8.970;2023-05-16T06:09:56;99320.00;;;7.60
18782;BMP180;9519;51.890;8.970;2023-05-16T06:15:00;99331.00;;;7.50
18782;BMP180;9519;51.890;8.970;2023-05-16T06:20:03;99340.00;;;7.60
18782;BMP180;9519;51.890;8.970;2023-05-16T06:25:06;99371.00;;;7.60
18782;BMP180;9519;51.890;8.970;2023-05-16T06:30:10;99339.00;;;7.60
18782;BMP180;9519;51.890;8.970;2023-05-16T06:35:12;99338.00;;;7.60
18782;BMP180;9519;51.890;8.970;2023-05-16T06:40:14;99350.00;;;7.60
18782;BMP180;9519;51.890;8.970;2023-05-16T06:45:18;99366.00;;;7.70
18782;BMP180;9519;51.890;8.970;2023-05-16T06:50:20;99374.00;;;7.80
18782;BMP180;9519;51.890;8.970;2023-05-16T06:55:22;99383.00;;;7.90
18782;BMP180;9519;51.890;8.970;2023-05-16T07:00:26;99368.00;;;8.00
18782;BMP180;9519;51.890;8.970;2023-05-16T07:05:28;99383.00;;;8.10
18782;BMP180;9519;51.890;8.970;2023-05-16T07:10:30;99368.00;;;8.00
18782;BMP180;9519;51.890;8.970;2023-05-16T07:15:33;99368.00;;;8.00
18782;BMP180;9519;51.890;8.970;2023-05-16T07:20:35;99374.00;;;8.10
18782;BMP180;9519;51.890;8.970;2023-05-16T07:25:37;99394.00;;;8.20
18782;BMP180;9519;51.890;8.970;2023-05-16T07:30:41;99402.00;;;8.20
18782;BMP180;9519;51.890;8.970;2023-05-16T07:35:43;99380.00;;;8.20
18782;BMP180;9519;51.890;8.970;2023-05-16T07:40:45;99390.00;;;8.10
18782;BMP180;9519;51.890;8.970;2023-05-16T07:45:48;99403.00;;;8.40
18782;BMP180;9519;51.890;8.970;2023-05-16T07:50:51;99422.00;;;8.70
18782;BMP180;9519;51.890;8.970;2023-05-16T07:55:53;99417.00;;;8.80
18782;BMP180;9519;51.890;8.970;2023-05-16T08:00:57;99406.00;;;8.90
18782;BMP180;9519;51.890;8.970;2023-05-16T08:05:59;99427.00;;;9.10
18782;BMP180;9519;51.890;8.970;2023-05-16T08:11:01;99435.00;;;9.30
18782;BMP180;9519;51.890;8.970;2023-05-16T08:16:05;99440.00;;;9.40
18782;BMP180;9519;51.890;8.970;2023-05-16T08:21:07;99432.00;;;9.50
18782;BMP180;9519;51.890;8.970;2023-05-16T08:26:09;99463.00;;;9.50
18782;BMP180;9519;51.890;8.970;2023-05-16T08:31:13;99444.00;;;9.40
18782;BMP180;9519;51.890;8.970;2023-05-16T08:36:16;99450.00;;;9.50
18782;BMP180;9519;51.890;8.970;2023-05-16T08:41:19;99443.00;;;9.70
18782;BMP180;9519;51.890;8.970;2023-05-16T08:46:24;99442.00;;;9.70
18782;BMP180;9519;51.890;8.970;2023-05-16T08:51:32;99421.00;;;9.80
18782;BMP180;9519;51.890;8.970;2023-05-16T08:56:36;99440.00;;;9.90
18782;BMP180;9519;51.890;8.970;2023-05-16T09:01:40;99439.00;;;10.10
18782;BMP180;9519;51.890;8.970;2023-05-16T09:06:42;99428.00;;;10.00
18782;BMP180;9519;51.890;8.970;2023-05-16T09:11:44;99437.00;;;9.90
18782;BMP180;9519;51.890;8.970;2023-05-16T09:17:03;99438.00;;;10.00
18782;BMP180;9519;51.890;8.970;2023-05-16T09:22:08;99458.00;;;10.20
18782;BMP180;9519;51.890;8.970;2023-05-16T09:27:12;99444.00;;;10.30
18782;BMP180;9519;51.890;8.970;2023-05-16T09:32:16;99452.00;;;10.50
18782;BMP180;9519;51.890;8.970;2023-05-16T09:37:19;99451.00;;;10.60
18782;BMP180;9519;51.890;8.970;2023-05-16T09:42:21;99447.00;;;10.70
18782;BMP180;9519;51.890;8.970;2023-05-16T09:47:27;99459.00;;;10.70
18782;BMP180;9519;51.890;8.970;2023-05-16T09:52:29;99463.00;;;10.80
18782;BMP180;9519;51.890;8.970;2023-05-16T09:57:31;99473.00;;;10.90
18782;BMP180;9519;51.890;8.970;2023-05-16T10:02:36;99463.00;;;10.80
18782;BMP180;9519;51.890;8.970;2023-05-16T10:07:39;99453.00;;;10.70
18782;BMP180;9519;51.890;8.970;2023-05-16T10:12:43;99454.00;;;10.80
18782;BMP180;9519;51.890;8.970;2023-05-16T10:17:50;99462.00;;;11.00
18782;BMP180;9519;51.890;8.970;2023-05-16T10:22:55;99445.00;;;10.90
18782;BMP180;9519;51.890;8.970;2023-05-16T10:27:59;99462.00;;;11.00
18782;BMP180;9519;51.890;8.970;2023-05-16T10:33:03;99447.00;;;11.10
18782;BMP180;9519;51.890;8.970;2023-05-16T10:38:06;99451.00;;;11.40
18782;BMP180;9519;51.890;8.970;2023-05-16T10:43:09;99453.00;;;11.50
18782;BMP180;9519;51.890;8.970;2023-05-16T10:48:12;99441.00;;;11.30
18782;BMP180;9519;51.890;8.970;2023-05-16T10:53:19;99453.00;;;11.30
18782;BMP180;9519;51.890;8.970;2023-05-16T10:58:26;99444.00;;;11.50
18782;BMP180;9519;51.890;8.970;2023-05-16T11:09:23;99452.00;;;11.80
18782;BMP180;9519;51.890;8.970;2023-05-16T11:14:33;99456.00;;;11.70
18782;BMP180;9519;51.890;8.970;2023-05-16T11:19:43;99447.00;;;11.80
18782;BMP180;9519;51.890;8.970;2023-05-16T11:24:52;99451.00;;;12.00
18782;BMP180;9519;51.890;8.970;2023-05-16T11:29:59;99433.00;;;12.10
18782;BMP180;9519;51.890;8.970;2023-05-16T11:35:03;99423.00;;;12.20
18782;BMP180;9519;51.890;8.970;2023-05-16T11:40:08;99443.00;;;12.20
18782;BMP180;9519;51.890;8.970;2023-05-16T11:45:14;99432.00;;;12.30
18782;BMP180;9519;51.890;8.970;2023-05-16T11:50:20;99434.00;;;12.30
18782;BMP180;9519;51.890;8.970;2023-05-16T11:55:25;99454.00;;;12.30
18782;BMP180;9519;51.890;8.970;2023-05-16T12:00:27;99445.00;;;12.40
18782;BMP180;9519;51.890;8.970;2023-05-16T12:05:31;99458.00;;;12.40
18782;BMP180;9519;51.890;8.970;2023-05-16T12:10:33;99468.00;;;12.40
18782;BMP180;9519;51.890;8.970;2023-05-16T12:15:35;99469.00;;;12.60
18782;BMP180;9519;51.890;8.970;2023-05-16T12:20:39;99438.00;;;12.60
18782;BMP180;9519;51.890;8.970;2023-05-16T12:25:45;99453.00;;;12.70
18782;BMP180;9519;51.890;8.970;2023-05-16T12:30:49;99468.00;;;12.90
18782;BMP180;9519;51.890;8.970;2023-05-16T12:35:52;99448.00;;;13.10
18782;BMP180;9519;51.890;8.970;2023-05-16T12:40:57;99445.00;;;13.40
18782;BMP180;9519;51.890;8.970;2023-05-16T12:45:59;99439.00;;;13.30
18782;BMP180;9519;51.890;8.970;2023-05-16T12:51:12;99450.00;;;13.10
18782;BMP180;9519;51.890;8.970;2023-05-16T12:56:15;99459.00;;;12.90
18782;BMP180;9519;51.890;8.970;2023-05-16T13:01:17;99458.00;;;12.70
18782;BMP180;9519;51.890;8.970;2023-05-16T13:06:20;99465.00;;;12.60
18782;BMP180;9519;51.890;8.970;2023-05-16T13:11:22;99471.00;;;12.60
18782;BMP180;9519;51.890;8.970;2023-05-16T13:16:24;99467.00;;;12.70
18782;BMP180;9519;51.890;8.970;2023-05-16T13:21:28;99455.00;;;12.70
18782;BMP180;9519;51.890;8.970;2023-05-16T13:26:31;99483.00;;;13.00
18782;BMP180;9519;51.890;8.970;2023-05-16T13:31:33;99465.00;;;13.20
18782;BMP180;9519;51.890;8.970;2023-05-16T13:36:36;99459.00;;;13.50
18782;BMP180;9519;51.890;8.970;2023-05-16T13:41:39;99460.00;;;13.60
18782;BMP180;9519;51.890;8.970;2023-05-16T13:46:41;99448.00;;;13.40
18782;BMP180;9519;51.890;8.970;2023-05-16T13:51:45;99450.00;;;13.30
18782;BMP180;9519;51.890;8.970;2023-05-16T13:56:48;99458.00;;;13.10
18782;BMP180;9519;51.890;8.970;2023-05-16T14:01:50;99460.00;;;13.40
18782;BMP180;9519;51.890;8.970;2023-05-16T14:06:53;99461.00;;;13.80
18782;BMP180;9519;51.890;8.970;2023-05-16T14:11:56;99473.00;;;14.40
18782;BMP180;9519;51.890;8.970;2023-05-16T14:16:58;99612.00;;;14.70
18782;BMP180;9519;51.890;8.970;2023-05-16T14:22:01;99611.00;;;15.00
18782;BMP180;9519;51.890;8.970;2023-05-16T14:27:03;99606.00;;;15.00
18782;BMP180;9519;51.890;8.970;2023-05-16T14:32:06;99466.00;;;15.00
18782;BMP180;9519;51.890;8.970;2023-05-16T14:37:11;99449.00;;;14.20
18782;BMP180;9519;51.890;8.970;2023-05-16T14:42:14;99452.00;;;13.90
18782;BMP180;9519;51.890;8.970;2023-05-16T14:47:16;99478.00;;;13.80
18782;BMP180;9519;51.890;8.970;2023-05-16T14:52:19;99630.00;;;14.10
18782;BMP180;9519;51.890;8.970;2023-05-16T14:57:21;99645.00;;;14.30
18782;BMP180;9519;51.890;8.970;2023-05-16T15:02:23;99629.00;;;14.60
18782;BMP180;9519;51.890;8.970;2023-05-16T15:07:28;99633.00;;;14.70
18782;BMP180;9519;51.890;8.970;2023-05-16T15:12:30;99492.00;;;14.10
18782;BMP180;9519;51.890;8.970;2023-05-16T15:17:32;99504.00;;;13.80
18782;BMP180;9519;51.890;8.970;2023-05-16T15:22:36;99505.00;;;13.40
18782;BMP180;9519;51.890;8.970;2023-05-16T15:27:39;99531.00;;;13.10
18782;BMP180;9519;51.890;8.970;2023-05-16T15:32:41;99711.00;;;13.10
18782;BMP180;9519;51.890;8.970;2023-05-16T15:37:45;99529.00;;;13.40
18782;BMP180;9519;51.890;8.970;2023-05-16T15:42:47;99520.00;;;13.50
18782;BMP180;9519;51.890;8.970;2023-05-16T15:47:49;99703.00;;;13.60
18782;BMP180;9519;51.890;8.970;2023-05-16T15:52:53;99527.00;;;13.80
18782;BMP180;9519;51.890;8.970;2023-05-16T15:58:00;99525.00;;;13.90
18782;BMP180;9519;51.890;8.970;2023-05-16T16:03:03;99688.00;;;14.00
18782;BMP180;9519;51.890;8.970;2023-05-16T16:08:07;99683.00;;;14.20
18782;BMP180;9519;51.890;8.970;2023-05-16T16:13:09;99691.00;;;14.50
18782;BMP180;9519;51.890;8.970;2023-05-16T16:18:11;99522.00;;;14.60
18782;BMP180;9519;51.890;8.970;2023-05-16T16:23:14;99527.00;;;14.10
18782;BMP180;9519;51.890;8.970;2023-05-16T16:28:17;99532.00;;;14.00
18782;BMP180;9519;51.890;8.970;2023-05-16T16:33:19;99523.00;;;13.90
18782;BMP180;9519;51.890;8.970;2023-05-16T16:38:22;99534.00;;;13.70
18782;BMP180;9519;51.890;8.970;2023-05-16T16:43:24;99533.00;;;13.60
18782;BMP180;9519;51.890;8.970;2023-05-16T16:48:26;99539.00;;;13.20
18782;BMP180;9519;51.890;8.970;2023-05-16T16:53:30;99545.00;;;13.10
18782;BMP180;9519;51.890;8.970;2023-05-16T16:58:32;99541.00;;;13.40
18782;BMP180;9519;51.890;8.970;2023-05-16T17:03:34;99545.00;;;13.80
18782;BMP180;9519;51.890;8.970;2023-05-16T17:08:38;99557.00;;;14.00
18782;BMP180;9519;51.890;8.970;2023-05-16T17:13:40;99543.00;;;14.20
18782;BMP180;9519;51.890;8.970;2023-05-16T17:18:41;99550.00;;;14.10
18782;BMP180;9519;51.890;8.970;2023-05-16T17:23:45;99573.00;;;13.80
18782;BMP180;9519;51.890;8.970;2023-05-16T17:28:48;99574.00;;;13.50
18782;BMP180;9519;51.890;8.970;2023-05-16T17:33:50;99570.00;;;13.30
18782;BMP180;9519;51.890;8.970;2023-05-16T17:38:54;99581.00;;;12.90
18782;BMP180;9519;51.890;8.970;2023-05-16T17:43:58;99606.00;;;12.60
18782;BMP180;9519;51.890;8.970;2023-05-16T17:49:00;99586.00;;;12.30
18782;BMP180;9519;51.890;8.970;2023-05-16T17:54:03;99592.00;;;12.00
18782;BMP180;9519;51.890;8.970;2023-05-16T17:59:05;99601.00;;;11.80
18782;BMP180;9519;51.890;8.970;2023-05-16T18:04:09;99608.00;;;11.70
18782;BMP180;9519;51.890;8.970;2023-05-16T18:09:12;99612.00;;;11.50
18782;BMP180;9519;51.890;8.970;2023-05-16T18:14:14;99609.00;;;11.30
18782;BMP180;9519;51.890;8.970;2023-05-16T18:19:17;99616.00;;;11.20
18782;BMP180;9519;51.890;8.970;2023-05-16T18:24:20;99626.00;;;11.00
18782;BMP180;9519;51.890;8.970;2023-05-16T18:29:22;99626.00;;;10.90
18782;BMP180;9519;51.890;8.970;2023-05-16T18:34:24;99624.00;;;10.80
18782;BMP180;9519;51.890;8.970;2023-05-16T18:39:28;99630.00;;;10.80
18782;BMP180;9519;51.890;8.970;2023-05-16T18:44:31;99638.00;;;10.80
18782;BMP180;9519;51.890;8.970;2023-05-16T18:49:34;99644.00;;;10.70
18782;BMP180;9519;51.890;8.970;2023-05-16T18:54:40;99642.00;;;10.60
18782;BMP180;9519;51.890;8.970;2023-05-16T18:59:42;99653.00;;;10.50
18782;BMP180;9519;51.890;8.970;2023-05-16T19:04:43;99658.00;;;10.50
18782;BMP180;9519;51.890;8.970;2023-05-16T19:09:47;99636.00;;;10.40
18782;BMP180;9519;51.890;8.970;2023-05-16T19:14:49;99665.00;;;10.30
18782;BMP180;9519;51.890;8.970;2023-05-16T19:19:51;99661.00;;;10.30
18782;BMP180;9519;51.890;8.970;2023-05-16T19:24:55;99673.00;;;10.30
18782;BMP180;9519;51.890;8.970;2023-05-16T19:29:57;99687.00;;;10.30
18782;BMP180;9519;51.890;8.970;2023-05-16T19:34:59;99680.00;;;10.20
18782;BMP180;9519;51.890;8.970;2023-05-16T19:40:03;99697.00;;;10.20
18782;BMP180;9519;51.890;8.970;2023-05-16T19:45:06;99689.00;;;10.10
18782;BMP180;9519;51.890;8.970;2023-05-16T19:50:09;99700.00;;;10.10
18782;BMP180;9519;51.890;8.970;2023-05-16T19:55:13;99701.00;;;10.10
18782;BMP180;9519;51.890;8.970;2023-05-16T20:00:15;99702.00;;;10.00
18782;BMP180;9519;51.890;8.970;2023-05-16T20:05:17;99649.00;;;9.90
18782;BMP180;9519;51.890;8.970;2023-05-16T20:10:23;99691.00;;;9.90
18782;BMP180;9519;51.890;8.970;2023-05-16T20:15:25;99702.00;;;9.80
18782;BMP180;9519;51.890;8.970;2023-05-16T20:20:27;99697.00;;;9.80
18782;BMP180;9519;51.890;8.970;2023-05-16T20:25:31;99700.00;;;9.70
18782;BMP180;9519;51.890;8.970;2023-05-16T20:30:33;99695.00;;;9.60
18782;BMP180;9519;51.890;8.970;2023-05-16T20:35:35;99693.00;;;9.60
18782;BMP180;9519;51.890;8.970;2023-05-16T20:40:38;99686.00;;;9.50
18782;BMP180;9519;51.890;8.970;2023-05-16T20:45:40;99695.00;;;9.40
18782;BMP180;9519;51.890;8.970;2023-05-16T20:50:43;99688.00;;;9.30
18782;BMP180;9519;51.890;8.970;2023-05-16T20:55:46;99679.00;;;9.30
18782;BMP180;9519;51.890;8.970;2023-05-16T21:00:48;99692.00;;;9.20
18782;BMP180;9519;51.890;8.970;2023-05-16T21:05:50;99684.00;;;9.10
18782;BMP180;9519;51.890;8.970;2023-05-16T21:10:54;99701.00;;;9.10
18782;BMP180;9519;51.890;8.970;2023-05-16T21:15:56;99712.00;;;9.10
18782;BMP180;9519;51.890;8.970;2023-05-16T21:20:58;99718.00;;;9.10
18782;BMP180;9519;51.890;8.970;2023-05-16T21:26:01;99691.00;;;9.10
18782;BMP180;9519;51.890;8.970;2023-05-16T21:31:03;99698.00;;;9.00
18782;BMP180;9519;51.890;8.970;2023-05-16T21:36:06;99628.00;;;8.90
18782;BMP180;9519;51.890;8.970;2023-05-16T21:41:09;99690.00;;;8.90
18782;BMP180;9519;51.890;8.970;2023-05-16T21:46:11;99708.00;;;8.80
18782;BMP180;9519;51.890;8.970;2023-05-16T21:51:13;99699.00;;;8.70
18782;BMP180;9519;51.890;8.970;2023-05-16T21:56:17;99698.00;;;8.70
18782;BMP180;9519;51.890;8.970;2023-05-16T22:01:19;99697.00;;;8.60
18782;BMP180;9519;51.890;8.970;2023-05-16T22:06:24;99700.00;;;8.50
18782;BMP180;9519;51.890;8.970;2023-05-16T22:11:28;99700.00;;;8.50
18782;BMP180;9519;51.890;8.970;2023-05-16T22:16:30;99700.00;;;8.40
18782;BMP180;9519;51.890;8.970;2023-05-16T22:21:32;99691.00;;;8.40
18782;BMP180;9519;51.890;8.970;2023-05-16T22:26:35;99682.00;;;8.30
18782;BMP180;9519;51.890;8.970;2023-05-16T22:31:37;99691.00;;;8.20
18782;BMP180;9519;51.890;8.970;2023-05-16T22:36:39;99687.00;;;8.20
18782;BMP180;9519;51.890;8.970;2023-05-16T22:41:43;99677.00;;;8.10
18782;BMP180;9519;51.890;8.970;2023-05-16T22:46:45;99694.00;;;8.10
18782;BMP180;9519;51.890;8.970;2023-05-16T22:51:47;99682.00;;;8.00
18782;BMP180;9519;51.890;8.970;2023-05-16T22:56:51;99701.00;;;7.90
18782;BMP180;9519;51.890;8.970;2023-05-16T23:01:53;99711.00;;;7.90
18782;BMP180;9519;51.890;8.970;2023-05-16T23:06:55;99720.00;;;7.80
18782;BMP180;9519;51.890;8.970;2023-05-16T23:11:58;99706.00;;;7.80
18782;BMP180;9519;51.890;8.970;2023-05-16T23:17:00;99700.00;;;7.70
18782;BMP180;9519;51.890;8.970;2023-05-16T23:22:02;99716.00;;;7.70
18782;BMP180;9519;51.890;8.970;2023-05-16T23:27:07;99716.00;;;7.70
18782;BMP180;9519;51.890;8.970;2023-05-16T23:32:11;99724.00;;;7.60
18782;BMP180;9519;51.890;8.970;2023-05-16T23:37:14;99711.00;;;7.70
18782;BMP180;9519;51.890;8.970;2023-05-16T23:42:18;99715.00;;;7.60
18782;BMP180;9519;51.890;8.970;2023-05-16T23:47:20;99722.00;;;7.60
18782;BMP180;9519;51.890;8.970;2023-05-16T23:52:22;99704.00;;;7.60
18782;BMP180;9519;51.890;8.970;2023-05-16T23:57:26;99709.00;;;7.60
